createdAt,value
2018-09-05T00:01:24.437Z,94.70
2018-09-05T00:03:53.094Z,94.70
2018-09-05T00:06:22.274Z,94.00
2018-09-05T00:08:50.878Z,94.00
2018-09-05T00:11:19.585Z,92.80
2018-09-05T00:13:48.181Z,94.80
2018-09-05T00:16:16.762Z,94.40
2018-09-05T00:18:45.361Z,94.80
2018-09-05T00:21:13.957Z,94.40
2018-09-05T00:23:42.562Z,94.30
2018-09-05T00:26:11.150Z,93.80
2018-09-05T00:28:39.758Z,95.70
2018-09-05T00:31:10.528Z,95.70
2018-09-05T00:33:39.448Z,96.00
2018-09-05T00:36:08.313Z,94.70
2018-09-05T00:38:36.957Z,94.20
2018-09-05T00:41:05.624Z,95.00
2018-09-05T00:43:34.223Z,94.80
2018-09-05T00:46:02.817Z,94.60
2018-09-05T00:48:31.410Z,93.90
2018-09-05T00:50:59.980Z,94.30
2018-09-05T00:53:28.589Z,94.50
2018-09-05T00:55:57.167Z,94.90
2018-09-05T00:58:25.769Z,94.70
2018-09-05T01:00:54.417Z,94.60
2018-09-05T01:03:23.022Z,94.70
2018-09-05T01:05:51.620Z,95.00
2018-09-05T01:08:20.533Z,94.80
2018-09-05T01:10:49.116Z,95.00
2018-09-05T01:13:17.708Z,95.80
2018-09-05T01:15:46.306Z,95.30
2018-09-05T01:18:14.930Z,95.00
2018-09-05T01:20:43.562Z,95.40
2018-09-05T01:23:12.155Z,96.00
2018-09-05T01:25:40.742Z,95.90
2018-09-05T01:28:09.446Z,95.00
2018-09-05T01:30:38.051Z,95.70
2018-09-05T01:33:06.676Z,95.00
2018-09-05T01:35:35.286Z,94.90
2018-09-05T01:38:03.911Z,95.60
2018-09-05T01:40:32.492Z,95.30
2018-09-05T01:43:01.117Z,95.60
2018-09-05T01:45:29.706Z,96.70
2018-09-05T01:47:58.314Z,95.00
2018-09-05T01:50:32.373Z,96.70
2018-09-05T01:53:00.989Z,95.30
2018-09-05T01:55:29.600Z,94.30
2018-09-05T01:57:58.173Z,94.10
2018-09-05T02:00:32.030Z,95.00
2018-09-05T02:03:00.642Z,95.60
2018-09-05T02:05:29.272Z,95.90
2018-09-05T02:07:57.862Z,95.80
2018-09-05T02:10:26.465Z,95.20
2018-09-05T02:12:55.041Z,94.90
2018-09-05T02:15:23.670Z,95.90
2018-09-05T02:17:52.526Z,95.80
2018-09-05T02:20:21.640Z,95.50
2018-09-05T02:22:50.313Z,96.40
2018-09-05T02:25:19.026Z,94.80
2018-09-05T02:27:47.657Z,95.40
2018-09-05T02:30:16.274Z,96.20
2018-09-05T02:32:44.873Z,95.20
2018-09-05T02:35:13.525Z,96.20
2018-09-05T02:37:42.545Z,96.30
2018-09-05T02:40:11.221Z,95.30
2018-09-05T02:42:39.793Z,95.90
2018-09-05T02:45:08.486Z,95.20
2018-09-05T02:47:37.122Z,94.20
2018-09-05T02:50:05.788Z,93.80
2018-09-05T02:52:34.678Z,95.30
2018-09-05T02:55:03.470Z,94.40
2018-09-05T02:57:32.058Z,96.80
2018-09-05T03:00:00.705Z,95.80
2018-09-05T03:02:29.293Z,96.90
2018-09-05T03:04:57.921Z,96.20
2018-09-05T03:07:26.527Z,95.80
2018-09-05T03:09:55.134Z,96.20
2018-09-05T03:12:23.709Z,96.30
2018-09-05T03:14:53.103Z,96.20
2018-09-05T03:17:21.964Z,95.80
2018-09-05T03:19:50.609Z,94.80
2018-09-05T03:22:19.282Z,94.70
2018-09-05T03:24:47.890Z,95.90
2018-09-05T03:27:16.479Z,95.50
2018-09-05T03:29:46.005Z,95.50
2018-09-05T03:32:14.715Z,95.40
2018-09-05T03:34:43.269Z,95.80
2018-09-05T03:37:11.872Z,96.70
2018-09-05T03:39:40.448Z,96.70
2018-09-05T03:42:09.189Z,97.00
2018-09-05T03:44:37.800Z,96.60
2018-09-05T03:47:06.396Z,96.70
2018-09-05T03:49:34.987Z,98.50
2018-09-05T03:52:03.610Z,96.30
2018-09-05T03:54:32.285Z,96.20
2018-09-05T03:57:00.886Z,96.50
2018-09-05T03:59:29.465Z,97.40
2018-09-05T04:01:58.074Z,95.60
2018-09-05T04:04:27.267Z,95.90
2018-09-05T04:06:55.886Z,94.90
2018-09-05T04:09:24.450Z,95.60
2018-09-05T04:11:54.078Z,96.20
2018-09-05T04:14:22.645Z,96.10
2018-09-05T04:16:51.258Z,96.30
2018-09-05T04:19:21.337Z,95.80
2018-09-05T04:24:43.418Z,95.00
2018-09-05T04:27:24.906Z,95.90
2018-09-05T04:29:53.599Z,94.70
2018-09-05T04:32:22.161Z,94.80
2018-09-05T04:34:50.805Z,96.80
2018-09-05T04:37:19.458Z,96.10
2018-09-05T04:39:48.062Z,95.60
2018-09-05T04:42:16.729Z,95.90
2018-09-05T04:44:45.312Z,95.90
2018-09-05T04:47:14.030Z,96.50
2018-09-05T04:49:42.606Z,96.40
2018-09-05T04:52:11.224Z,96.10
2018-09-05T04:54:39.812Z,95.40
2018-09-05T04:57:08.410Z,95.10
2018-09-05T04:59:36.990Z,94.50
2018-09-05T05:02:05.777Z,95.30
2018-09-05T05:04:34.420Z,96.40
2018-09-05T05:07:02.989Z,95.80
2018-09-05T05:09:31.601Z,96.50
2018-09-05T05:12:00.197Z,95.20
2018-09-05T05:14:29.766Z,94.90
2018-09-05T05:16:58.382Z,95.60
2018-09-05T05:19:27.165Z,95.50
2018-09-05T05:21:55.770Z,95.60
2018-09-05T05:24:24.346Z,96.40
2018-09-05T05:26:52.940Z,96.40
2018-09-05T05:29:21.534Z,96.90
2018-09-05T05:31:50.217Z,95.90
2018-09-05T05:34:19.141Z,96.20
2018-09-05T05:36:47.781Z,96.10
2018-09-05T05:39:16.386Z,96.50
2018-09-05T05:41:45.189Z,98.00
2018-09-05T05:44:13.802Z,97.40
2018-09-05T05:46:42.421Z,95.20
2018-09-05T05:49:11.250Z,95.70
2018-09-05T05:51:39.863Z,97.90
2018-09-05T05:54:08.469Z,98.20
2018-09-05T05:56:37.199Z,96.70
2018-09-05T05:59:05.805Z,96.50
2018-09-05T06:01:34.418Z,97.40
2018-09-05T06:04:03.026Z,99.50
2018-09-05T06:06:31.744Z,99.00
2018-09-05T06:09:00.343Z,99.80
2018-09-05T06:11:29.075Z,99.10
2018-09-05T06:13:57.698Z,97.60
2018-09-05T06:16:26.268Z,97.90
2018-09-05T06:18:54.910Z,97.30
2018-09-05T06:21:23.490Z,95.80
2018-09-05T06:23:52.121Z,95.70
2018-09-05T06:26:22.133Z,94.80
2018-09-05T06:28:51.029Z,94.50
2018-09-05T06:31:19.798Z,93.70
2018-09-05T06:33:48.258Z,93.00
2018-09-05T06:36:16.869Z,92.40
2018-09-05T06:38:45.489Z,91.80
2018-09-05T06:41:14.070Z,91.40
2018-09-05T06:43:42.915Z,90.60
2018-09-05T06:46:11.506Z,90.20
2018-09-05T06:48:41.094Z,90.10
2018-09-05T06:51:09.883Z,89.00
2018-09-05T06:53:39.492Z,87.70
2018-09-05T06:56:08.142Z,86.70
2018-09-05T06:58:37.119Z,84.70
2018-09-05T07:01:05.796Z,84.80
2018-09-05T07:03:34.543Z,83.50
2018-09-05T07:06:03.115Z,81.20
2018-09-05T07:08:31.716Z,80.10
2018-09-05T07:11:00.281Z,80.90
2018-09-05T07:13:28.932Z,79.00
2018-09-05T07:15:57.520Z,78.10
2018-09-05T07:18:26.741Z,76.90
2018-09-05T07:21:05.685Z,74.20
2018-09-05T07:23:23.956Z,73.50
2018-09-05T07:25:52.544Z,72.90
2018-09-05T07:28:21.274Z,70.40
2018-09-05T07:30:49.876Z,73.00
2018-09-05T07:33:18.470Z,73.00
2018-09-05T07:35:47.134Z,73.60
2018-09-05T07:38:15.722Z,68.00
2018-09-05T07:40:44.338Z,69.20
2018-09-05T07:43:12.906Z,66.40
2018-09-05T07:45:41.534Z,64.50
2018-09-05T07:48:10.158Z,62.40
2018-09-05T07:50:38.753Z,64.60
2018-09-05T07:53:07.345Z,64.60
2018-09-05T07:55:35.941Z,65.10
2018-09-05T07:58:04.839Z,59.90
2018-09-05T08:00:33.431Z,62.30
2018-09-05T08:03:02.107Z,63.80
2018-09-05T08:05:30.674Z,57.60
2018-09-05T08:07:59.233Z,60.00
2018-09-05T08:10:27.889Z,62.20
2018-09-05T08:12:56.468Z,59.20
2018-09-05T08:15:25.073Z,54.40
2018-09-05T08:17:54.043Z,56.20
2018-09-05T08:20:23.460Z,60.00
2018-09-05T08:22:52.079Z,54.90
2018-09-05T08:25:20.776Z,55.90
2018-09-05T08:27:49.358Z,58.70
2018-09-05T08:30:18.035Z,52.00
2018-09-05T08:32:47.422Z,56.70
2018-09-05T08:35:16.392Z,50.80
2018-09-05T08:37:44.869Z,56.10
2018-09-05T08:40:13.444Z,53.40
2018-09-05T08:42:42.113Z,51.20
2018-09-05T08:45:10.801Z,50.70
2018-09-05T08:47:39.419Z,51.40
2018-09-05T08:50:07.973Z,53.50
2018-09-05T08:52:36.783Z,50.80
2018-09-05T08:55:09.340Z,52.20
2018-09-05T08:57:44.514Z,48.80
2018-09-05T09:00:13.387Z,49.60
2018-09-05T09:02:42.146Z,47.70
2018-09-05T09:05:13.287Z,50.50
2018-09-05T09:07:46.735Z,47.90
2018-09-05T09:10:17.586Z,49.20
2018-09-05T09:12:46.270Z,45.20
2018-09-05T09:15:17.758Z,46.60
2018-09-05T09:17:46.559Z,46.60
2018-09-05T09:20:15.154Z,45.40
2018-09-05T09:22:43.914Z,47.60
2018-09-05T09:25:12.499Z,46.00
2018-09-05T09:27:41.195Z,46.00
2018-09-05T09:30:09.871Z,43.60
2018-09-05T09:32:38.536Z,44.90
2018-09-05T09:35:08.018Z,44.90
2018-09-05T09:37:36.634Z,43.90
2018-09-05T09:40:05.285Z,41.60
2018-09-05T09:42:33.908Z,40.90
2018-09-05T09:45:02.497Z,41.00
2018-09-05T09:47:31.089Z,41.30
2018-09-05T09:49:59.682Z,39.20
2018-09-05T09:52:28.420Z,39.40
2018-09-05T09:54:57.055Z,39.40
2018-09-05T09:57:25.692Z,40.00
2018-09-05T09:59:54.268Z,40.40
2018-09-05T10:02:28.926Z,39.30
2018-09-05T10:05:02.861Z,39.80
2018-09-05T10:07:36.828Z,39.60
2018-09-05T10:10:11.074Z,41.60
2018-09-05T10:12:47.662Z,39.10
2018-09-05T10:15:21.521Z,40.30
2018-09-05T10:17:56.062Z,40.80
2018-09-05T10:20:24.658Z,39.00
2018-09-05T10:22:53.278Z,40.00
2018-09-05T10:25:21.854Z,39.60
2018-09-05T10:27:50.561Z,40.70
2018-09-05T10:30:19.442Z,41.00
2018-09-05T10:32:48.048Z,41.90
2018-09-05T10:35:16.666Z,41.80
2018-09-05T10:37:45.291Z,39.90
2018-09-05T10:40:13.874Z,40.70
2018-09-05T10:42:42.485Z,41.70
2018-09-05T10:45:11.062Z,42.30
2018-09-05T10:47:39.714Z,40.90
2018-09-05T10:50:08.320Z,42.90
2018-09-05T10:52:36.926Z,43.40
2018-09-05T10:55:06.178Z,41.50
2018-09-05T10:57:34.823Z,42.60
2018-09-05T11:00:03.497Z,43.00
2018-09-05T11:02:32.600Z,44.60
2018-09-05T11:05:01.207Z,46.10
2018-09-05T11:07:29.794Z,46.20
2018-09-05T11:09:58.402Z,45.60
2018-09-05T11:12:27.008Z,45.50
2018-09-05T11:14:55.634Z,45.50
2018-09-05T11:17:24.214Z,46.80
2018-09-05T11:19:52.842Z,44.80
2018-09-05T11:22:21.456Z,47.40
2018-09-05T11:24:50.054Z,45.50
2018-09-05T11:27:18.627Z,46.30
2018-09-05T11:29:47.218Z,46.50
2018-09-05T11:32:15.786Z,47.20
2018-09-05T11:34:44.378Z,46.40
2018-09-05T11:37:13.065Z,47.30
2018-09-05T11:39:41.653Z,47.90
2018-09-05T11:42:10.239Z,48.20
2018-09-05T11:44:38.869Z,48.90
2018-09-05T11:47:07.534Z,48.80
2018-09-05T11:49:36.307Z,48.50
2018-09-05T11:52:04.915Z,49.10
2018-09-05T11:54:33.528Z,49.00
2018-09-05T11:57:02.094Z,49.80
2018-09-05T11:59:30.709Z,49.20
2018-09-05T12:01:59.349Z,49.80
2018-09-05T12:04:27.949Z,49.90
2018-09-05T12:06:56.584Z,50.40
2018-09-05T12:09:25.211Z,50.50
2018-09-05T12:11:53.794Z,50.80
2018-09-05T12:14:22.371Z,50.70
2018-09-05T12:16:51.038Z,50.60
2018-09-05T12:19:19.633Z,50.70
2018-09-05T12:21:49.108Z,51.30
2018-09-05T12:24:17.679Z,51.10
2018-09-05T12:26:46.302Z,51.70
2018-09-05T12:29:14.929Z,51.40
2018-09-05T12:31:43.968Z,51.30
2018-09-05T12:34:13.338Z,51.60
2018-09-05T12:36:41.974Z,51.90
2018-09-05T12:39:12.652Z,52.10
2018-09-05T12:41:41.810Z,52.10
2018-09-05T12:44:11.114Z,52.70
2018-09-05T12:46:39.896Z,52.20
2018-09-05T12:49:08.635Z,53.00
2018-09-05T12:51:37.352Z,53.20
2018-09-05T12:54:06.465Z,52.20
2018-09-05T12:56:35.053Z,52.50
2018-09-05T12:59:03.650Z,52.70
2018-09-05T13:01:33.457Z,52.60
2018-09-05T13:04:02.122Z,53.30
2018-09-05T13:06:30.751Z,53.30
2018-09-05T13:08:59.490Z,53.00
2018-09-05T13:11:28.174Z,52.70
2018-09-05T13:13:56.741Z,53.30
2018-09-05T13:16:25.457Z,53.90
2018-09-05T13:18:54.058Z,54.20
2018-09-05T13:21:22.682Z,54.80
2018-09-05T13:23:51.313Z,54.60
2018-09-05T13:26:20.033Z,54.20
2018-09-05T13:29:32.644Z,54.60
2018-09-05T13:32:01.336Z,54.70
2018-09-05T13:34:29.977Z,54.70
2018-09-05T13:36:58.597Z,54.00
2018-09-05T13:39:27.174Z,54.30
2018-09-05T13:41:56.755Z,54.50
2018-09-05T13:44:25.385Z,53.30
2018-09-05T13:46:53.986Z,53.80
2018-09-05T13:49:22.720Z,54.10
2018-09-05T13:51:56.690Z,53.50
2018-09-05T13:54:26.026Z,54.10
2018-09-05T13:56:54.604Z,53.90
2018-09-05T13:59:23.231Z,53.60
2018-09-05T14:01:51.835Z,54.10
2018-09-05T14:04:21.110Z,54.00
2018-09-05T14:06:49.727Z,54.00
2018-09-05T14:09:18.330Z,54.50
2018-09-05T14:11:46.924Z,54.70
2018-09-05T14:14:15.529Z,55.00
2018-09-05T14:16:44.114Z,56.00
2018-09-05T14:19:12.722Z,57.70
2018-09-05T14:21:41.300Z,57.10
2018-09-05T14:24:09.986Z,56.50
2018-09-05T14:26:38.566Z,56.10
2018-09-05T14:29:07.592Z,56.70
2018-09-05T14:31:36.277Z,56.70
2018-09-05T14:34:05.070Z,56.50
2018-09-05T14:36:33.705Z,58.30
2018-09-05T14:39:03.382Z,59.30
2018-09-05T14:41:31.973Z,56.20
2018-09-05T14:44:00.581Z,56.00
2018-09-05T14:46:29.171Z,56.70
2018-09-05T14:48:58.590Z,58.80
2018-09-05T14:51:27.191Z,64.10
2018-09-05T14:53:55.816Z,66.90
2018-09-05T14:56:24.433Z,62.50
2018-09-05T14:58:53.054Z,60.10
2018-09-05T15:01:21.659Z,59.70
2018-09-05T15:03:50.316Z,59.80
2018-09-05T15:06:19.026Z,59.20
2018-09-05T15:08:47.657Z,58.30
2018-09-05T15:11:16.257Z,58.40
2018-09-05T15:13:44.841Z,57.60
2018-09-05T15:16:13.540Z,57.80
2018-09-05T15:18:42.118Z,57.20
2018-09-05T15:21:10.733Z,55.80
2018-09-05T15:23:39.294Z,55.10
2018-09-05T15:26:07.952Z,52.40
2018-09-05T15:28:36.830Z,51.10
2018-09-05T15:31:05.544Z,51.10
2018-09-05T15:33:34.124Z,53.00
2018-09-05T15:36:02.788Z,54.10
2018-09-05T15:38:31.365Z,54.30
2018-09-05T15:40:59.983Z,53.40
2018-09-05T15:43:28.569Z,52.70
2018-09-05T15:45:57.265Z,52.50
2018-09-05T15:48:25.857Z,51.80
2018-09-05T15:50:54.472Z,52.50
2018-09-05T15:53:23.053Z,53.20
2018-09-05T15:55:51.714Z,54.20
2018-09-05T15:58:20.970Z,55.50
2018-09-05T16:00:50.101Z,55.40
2018-09-05T16:03:18.694Z,56.60
2018-09-05T16:05:47.300Z,56.40
2018-09-05T16:08:16.282Z,57.60
2018-09-05T16:10:44.890Z,57.60
2018-09-05T16:13:13.472Z,58.40
2018-09-05T16:15:42.360Z,57.70
2018-09-05T16:18:10.825Z,56.70
2018-09-05T16:20:39.477Z,56.50
2018-09-05T16:23:08.064Z,56.10
2018-09-05T16:25:36.755Z,55.90
2018-09-05T16:28:05.353Z,55.10
2018-09-05T16:30:33.945Z,56.00
2018-09-05T16:33:02.529Z,55.40
2018-09-05T16:35:31.190Z,57.00
2018-09-05T16:37:59.765Z,56.50
2018-09-05T16:40:28.422Z,58.60
2018-09-05T16:42:57.006Z,59.60
2018-09-05T16:45:25.677Z,61.10
2018-09-05T16:47:54.294Z,62.70
2018-09-05T16:50:23.666Z,62.40
2018-09-05T16:52:52.240Z,63.60
2018-09-05T16:55:20.815Z,64.30
2018-09-05T16:57:49.417Z,65.10
2018-09-05T17:00:18.002Z,66.40
2018-09-05T17:02:46.613Z,66.90
2018-09-05T17:05:15.940Z,67.90
2018-09-05T17:07:44.541Z,68.30
2018-09-05T17:10:13.202Z,68.50
2018-09-05T17:12:42.830Z,69.60
2018-09-05T17:15:13.372Z,69.40
2018-09-05T17:17:41.982Z,70.20
2018-09-05T17:20:10.574Z,70.50
2018-09-05T17:22:39.236Z,70.80
2018-09-05T17:25:07.915Z,71.00
2018-09-05T17:27:36.548Z,70.40
2018-09-05T17:30:05.502Z,71.40
2018-09-05T17:32:34.120Z,71.40
2018-09-05T17:35:03.096Z,71.60
2018-09-05T17:37:31.857Z,72.00
2018-09-05T17:40:00.450Z,72.70
2018-09-05T17:42:29.600Z,73.40
2018-09-05T17:44:58.189Z,74.20
2018-09-05T17:47:27.846Z,74.80
2018-09-05T17:49:56.477Z,74.50
2018-09-05T17:52:25.108Z,75.10
2018-09-05T17:54:53.686Z,76.00
2018-09-05T17:57:22.390Z,76.30
2018-09-05T17:59:52.775Z,76.40
2018-09-05T18:02:22.386Z,77.20
2018-09-05T18:04:50.965Z,78.60
2018-09-05T18:07:21.348Z,78.20
2018-09-05T18:09:49.975Z,77.70
2018-09-05T18:12:18.619Z,77.80
2018-09-05T18:14:47.394Z,79.20
2018-09-05T18:17:16.939Z,78.30
2018-09-05T18:19:45.586Z,78.80
2018-09-05T18:22:14.209Z,80.20
2018-09-05T18:24:42.922Z,80.90
2018-09-05T18:27:11.489Z,78.90
2018-09-05T18:29:42.432Z,78.90
2018-09-05T18:32:11.510Z,79.60
2018-09-05T18:34:40.505Z,80.90
2018-09-05T18:37:13.203Z,81.50
2018-09-05T18:39:45.267Z,80.80
2018-09-05T18:42:17.011Z,82.60
2018-09-05T18:44:49.520Z,82.60
2018-09-05T18:47:19.760Z,82.40
2018-09-05T18:49:50.308Z,83.40
2018-09-05T18:52:20.030Z,82.30
2018-09-05T18:54:49.803Z,84.30
2018-09-05T18:57:19.409Z,84.40
2018-09-05T18:59:49.021Z,84.00
2018-09-05T19:02:18.471Z,84.00
2018-09-05T19:04:49.086Z,84.30
2018-09-05T19:07:20.089Z,84.50
2018-09-05T19:09:50.154Z,85.50
2018-09-05T19:12:20.958Z,85.40
2018-09-05T19:14:50.886Z,84.70
2018-09-05T19:17:20.480Z,85.00
2018-09-05T19:19:49.898Z,85.90
2018-09-05T19:22:19.977Z,85.40
2018-09-05T19:24:50.050Z,85.30
2018-09-05T19:27:22.390Z,85.30
2018-09-05T19:29:51.863Z,83.90
2018-09-05T19:32:21.618Z,85.70
2018-09-05T19:34:52.234Z,85.40
2018-09-05T19:37:22.473Z,86.60
2018-09-05T19:39:53.342Z,86.80
2018-09-05T19:42:24.921Z,86.50
2018-09-05T19:44:55.139Z,85.30
2018-09-05T19:47:24.742Z,86.80
2018-09-05T19:49:54.566Z,87.10
2018-09-05T19:52:23.981Z,86.60
2018-09-05T19:54:54.454Z,86.50
2018-09-05T19:57:23.702Z,86.70
2018-09-05T19:59:54.536Z,88.30
2018-09-05T20:02:24.738Z,88.80
2018-09-05T20:04:54.793Z,88.30
2018-09-05T20:07:24.818Z,87.50
2018-09-05T20:09:54.410Z,86.20
2018-09-05T20:12:25.318Z,87.30
2018-09-05T20:14:55.432Z,88.60
2018-09-05T20:17:26.163Z,88.10
2018-09-05T20:19:56.713Z,89.80
2018-09-05T20:22:27.010Z,89.50
2018-09-05T20:24:55.858Z,90.60
2018-09-05T20:27:24.433Z,89.50
2018-09-05T20:29:53.108Z,89.40
2018-09-05T20:32:22.335Z,89.80
2018-09-05T20:34:50.929Z,88.50
2018-09-05T20:37:19.573Z,88.70
2018-09-05T20:39:48.176Z,86.90
2018-09-05T20:42:16.753Z,89.70
2018-09-05T20:44:45.979Z,89.30
2018-09-05T20:47:14.559Z,90.20
2018-09-05T20:49:43.194Z,90.30
2018-09-05T20:52:11.824Z,90.60
2018-09-05T20:54:40.381Z,90.80
2018-09-05T20:57:08.994Z,90.10
2018-09-05T20:59:37.605Z,90.20
2018-09-05T21:02:06.283Z,89.80
2018-09-05T21:04:34.885Z,89.50
2018-09-05T21:07:03.535Z,89.90
2018-09-05T21:09:32.123Z,90.20
2018-09-05T21:12:00.723Z,90.50
2018-09-05T21:14:30.259Z,91.40
2018-09-05T21:16:58.862Z,90.00
2018-09-05T21:19:27.452Z,90.90
2018-09-05T21:21:56.068Z,91.50
2018-09-05T21:24:24.665Z,90.10
2018-09-05T21:26:53.318Z,90.20
2018-09-05T21:29:22.364Z,91.00
2018-09-05T21:31:50.969Z,90.30
2018-09-05T21:34:19.550Z,90.00
2018-09-05T21:36:48.181Z,90.50
2018-09-05T21:39:16.761Z,90.40
2018-09-05T21:41:45.365Z,90.50
2018-09-05T21:44:13.937Z,90.20
2018-09-05T21:46:42.546Z,90.50
2018-09-05T21:49:11.414Z,89.60
2018-09-05T21:51:40.015Z,90.80
2018-09-05T21:54:08.621Z,90.50
2018-09-05T21:56:37.226Z,92.20
2018-09-05T21:59:06.046Z,91.80
2018-09-05T22:01:34.659Z,92.00
2018-09-05T22:04:03.278Z,91.30
2018-09-05T22:06:31.893Z,91.70
2018-09-05T22:09:00.477Z,90.80
2018-09-05T22:11:29.135Z,90.40
2018-09-05T22:13:57.793Z,91.20
2018-09-05T22:16:26.410Z,91.40
2018-09-05T22:18:55.049Z,91.30
2018-09-05T22:21:23.637Z,90.40
2018-09-05T22:23:52.254Z,90.80
2018-09-05T22:26:21.474Z,91.90
2018-09-05T22:28:50.117Z,91.80
2018-09-05T22:31:18.773Z,92.00
2018-09-05T22:33:47.956Z,92.00
2018-09-05T22:36:16.605Z,92.00
2018-09-05T22:38:45.228Z,91.80
2018-09-05T22:41:13.835Z,92.60
2018-09-05T22:43:53.695Z,91.70
2018-09-05T22:46:33.368Z,91.90
2018-09-05T22:49:14.007Z,91.80
2018-09-05T22:51:58.022Z,91.80
2018-09-05T22:55:14.818Z,92.30
2018-09-05T23:00:56.227Z,92.40
2018-09-05T23:03:36.031Z,92.60
2018-09-05T23:08:31.888Z,92.00
2018-09-05T23:11:11.598Z,91.50
2018-09-05T23:13:51.311Z,92.10
2018-09-05T23:16:31.078Z,93.10
2018-09-05T23:19:36.750Z,92.00
2018-09-05T23:22:05.355Z,92.00
2018-09-05T23:24:33.968Z,92.20
2018-09-05T23:27:03.623Z,92.70
2018-09-05T23:29:32.271Z,92.30
2018-09-05T23:32:00.879Z,92.30
2018-09-05T23:34:29.486Z,92.50
2018-09-05T23:36:58.327Z,92.70
2018-09-05T23:39:26.934Z,91.90
2018-09-05T23:41:55.626Z,92.60
2018-09-05T23:44:24.262Z,92.20
2018-09-05T23:46:52.842Z,93.70
2018-09-05T23:49:21.442Z,92.40
2018-09-05T23:51:50.038Z,92.40
2018-09-05T23:54:18.667Z,92.70
2018-09-05T23:56:47.454Z,92.80
2018-09-05T23:59:16.078Z,93.40
